sensor_id;sensor_type;location;lat;lon;timestamp;pressure;altitude;pressure_sealevel;temperature;humidity
59654;BME280;66556;52.008;5.432;2023-07-31T00:00:20;100900.0;;;41.13;20.37
59654;BME280;66556;52.008;5.432;2023-07-31T00:01:57;100899.0;;;41.24;20.25
59654;BME280;66556;52.008;5.432;2023-07-31T00:05:11;100893.0;;;41.37;20.32
59654;BME280;66556;52.008;5.432;2023-07-31T00:06:48;100888.0;;;40.53;21.06
59654;BME280;66556;52.008;5.432;2023-07-31T00:08:25;100887.0;;;39.89;22.01
59654;BME280;66556;52.008;5.432;2023-07-31T00:10:01;100881.0;;;40.99;20.76
59654;BME280;66556;52.008;5.432;2023-07-31T00:13:15;100883.0;;;40.93;20.89
59654;BME280;66556;52.008;5.432;2023-07-31T00:14:52;100875.0;;;42.13;19.7
59654;BME280;66556;52.008;5.432;2023-07-31T00:16:29;100878.0;;;41.91;20.0
59654;BME280;66556;52.008;5.432;2023-07-31T00:19:43;100871.0;;;41.55;20.32
59654;BME280;66556;52.008;5.432;2023-07-31T00:21:20;100870.0;;;40.74;21.17
59654;BME280;66556;52.008;5.432;2023-07-31T00:22:57;100873.0;;;41.48;20.78
59654;BME280;66556;52.008;5.432;2023-07-31T00:26:11;100863.0;;;40.6;21.84
59654;BME280;66556;52.008;5.432;2023-07-31T00:27:48;100865.0;;;41.43;21.15
59654;BME280;66556;52.008;5.432;2023-07-31T00:29:24;100864.0;;;40.57;22.16
59654;BME280;66556;52.008;5.432;2023-07-31T00:31:01;100867.0;;;42.22;20.52
59654;BME280;66556;52.008;5.432;2023-07-31T00:34:14;100862.0;;;42.44;20.39
59654;BME280;66556;52.008;5.432;2023-07-31T00:35:51;100863.0;;;42.51;20.29
59654;BME280;66556;52.008;5.432;2023-07-31T00:37:28;100864.0;;;41.67;21.31
59654;BME280;66556;52.008;5.432;2023-07-31T00:40:42;100867.0;;;41.57;21.57
59654;BME280;66556;52.008;5.432;2023-07-31T00:42:18;100865.0;;;41.93;21.33
59654;BME280;66556;52.008;5.432;2023-07-31T00:43:54;100865.0;;;41.22;21.95
59654;BME280;66556;52.008;5.432;2023-07-31T00:45:32;100860.0;;;41.01;21.96
59654;BME280;66556;52.008;5.432;2023-07-31T00:48:46;100862.0;;;41.09;22.05
59654;BME280;66556;52.008;5.432;2023-07-31T00:50:24;100866.0;;;41.25;21.86
59654;BME280;66556;52.008;5.432;2023-07-31T00:52:01;100864.0;;;41.15;21.99
59654;BME280;66556;52.008;5.432;2023-07-31T00:55:15;100864.0;;;41.64;21.66
59654;BME280;66556;52.008;5.432;2023-07-31T00:56:53;100862.0;;;42.37;20.7
59654;BME280;66556;52.008;5.432;2023-07-31T00:58:31;100857.0;;;41.93;21.15
59654;BME280;66556;52.008;5.432;2023-07-31T01:01:46;100858.0;;;41.98;21.12
59654;BME280;66556;52.008;5.432;2023-07-31T01:03:23;100855.0;;;42.3;20.7
59654;BME280;66556;52.008;5.432;2023-07-31T01:05:01;100851.0;;;40.36;22.73
59654;BME280;66556;52.008;5.432;2023-07-31T01:06:50;100852.0;;;41.08;21.95
59654;BME280;66556;52.008;5.432;2023-07-31T01:10:27;100855.0;;;41.15;21.93
59654;BME280;66556;52.008;5.432;2023-07-31T01:12:13;100851.0;;;42.44;20.5
59654;BME280;66556;52.008;5.432;2023-07-31T01:13:51;100850.0;;;42.91;20.14
59654;BME280;66556;52.008;5.432;2023-07-31T01:15:28;100848.0;;;43.07;19.82
59654;BME280;66556;52.008;5.432;2023-07-31T01:17:04;100849.0;;;41.67;21.18
59654;BME280;66556;52.008;5.432;2023-07-31T01:20:21;100843.0;;;42.25;20.67
59654;BME280;66556;52.008;5.432;2023-07-31T01:22:20;100845.0;;;41.05;21.78
59654;BME280;66556;52.008;5.432;2023-07-31T01:24:20;100843.0;;;41.35;21.52
59654;BME280;66556;52.008;5.432;2023-07-31T01:26:27;100843.0;;;40.92;21.89
59654;BME280;66556;52.008;5.432;2023-07-31T01:28:11;100842.0;;;41.0;21.83
59654;BME280;66556;52.008;5.432;2023-07-31T01:29:56;100839.0;;;41.06;22.06
59654;BME280;66556;52.008;5.432;2023-07-31T01:31:36;100836.0;;;40.68;22.22
59654;BME280;66556;52.008;5.432;2023-07-31T01:34:53;100838.0;;;40.79;22.11
59654;BME280;66556;52.008;5.432;2023-07-31T01:36:31;100836.0;;;40.79;22.14
59654;BME280;66556;52.008;5.432;2023-07-31T01:38:08;100835.0;;;42.08;20.92
59654;BME280;66556;52.008;5.432;2023-07-31T01:41:22;100842.0;;;41.5;21.43
59654;BME280;66556;52.008;5.432;2023-07-31T01:42:58;100839.0;;;42.8;20.51
59654;BME280;66556;52.008;5.432;2023-07-31T01:44:35;100842.0;;;42.89;20.02
59654;BME280;66556;52.008;5.432;2023-07-31T01:46:11;100846.0;;;42.79;20.12
59654;BME280;66556;52.008;5.432;2023-07-31T01:49:26;100844.0;;;41.4;21.49
59654;BME280;66556;52.008;5.432;2023-07-31T01:51:02;100842.0;;;41.4;21.46
59654;BME280;66556;52.008;5.432;2023-07-31T01:52:39;100850.0;;;41.55;21.15
59654;BME280;66556;52.008;5.432;2023-07-31T01:55:52;100846.0;;;41.11;21.77
59654;BME280;66556;52.008;5.432;2023-07-31T01:57:28;100851.0;;;41.92;21.08
59654;BME280;66556;52.008;5.432;2023-07-31T01:59:05;100852.0;;;42.1;20.97
59654;BME280;66556;52.008;5.432;2023-07-31T02:02:19;100851.0;;;41.1;22.01
59654;BME280;66556;52.008;5.432;2023-07-31T02:03:55;100848.0;;;41.19;21.79
59654;BME280;66556;52.008;5.432;2023-07-31T02:05:32;100842.0;;;40.78;22.23
59654;BME280;66556;52.008;5.432;2023-07-31T02:07:10;100838.0;;;41.41;21.54
59654;BME280;66556;52.008;5.432;2023-07-31T02:10:24;100838.0;;;40.97;21.75
59654;BME280;66556;52.008;5.432;2023-07-31T02:12:01;100822.0;;;41.21;21.57
59654;BME280;66556;52.008;5.432;2023-07-31T02:13:37;100831.0;;;40.58;22.03
59654;BME280;66556;52.008;5.432;2023-07-31T02:16:50;100828.0;;;42.75;19.84
59654;BME280;66556;52.008;5.432;2023-07-31T02:18:27;100825.0;;;42.19;20.36
59654;BME280;66556;52.008;5.432;2023-07-31T02:20:05;100824.0;;;42.49;20.34
59654;BME280;66556;52.008;5.432;2023-07-31T02:24:55;100811.0;;;42.09;20.67
59654;BME280;66556;52.008;5.432;2023-07-31T02:26:32;100806.0;;;42.13;20.69
59654;BME280;66556;52.008;5.432;2023-07-31T02:28:08;100807.0;;;42.56;20.23
59654;BME280;66556;52.008;5.432;2023-07-31T02:31:22;100797.0;;;42.15;20.76
59654;BME280;66556;52.008;5.432;2023-07-31T02:32:58;100795.0;;;42.79;19.98
59654;BME280;66556;52.008;5.432;2023-07-31T02:34:36;100799.0;;;42.1;20.57
59654;BME280;66556;52.008;5.432;2023-07-31T02:37:49;100799.0;;;42.0;20.75
59654;BME280;66556;52.008;5.432;2023-07-31T02:39:26;100788.0;;;42.05;20.55
59654;BME280;66556;52.008;5.432;2023-07-31T02:41:03;100792.0;;;41.55;21.16
59654;BME280;66556;52.008;5.432;2023-07-31T02:44:16;100790.0;;;42.32;20.37
59654;BME280;66556;52.008;5.432;2023-07-31T02:45:53;100792.0;;;42.72;19.96
59654;BME280;66556;52.008;5.432;2023-07-31T02:47:30;100790.0;;;43.35;19.43
59654;BME280;66556;52.008;5.432;2023-07-31T02:49:06;100790.0;;;42.58;19.91
59654;BME280;66556;52.008;5.432;2023-07-31T02:52:19;100794.0;;;42.7;19.91
59654;BME280;66556;52.008;5.432;2023-07-31T02:53:56;100793.0;;;41.38;21.11
59654;BME280;66556;52.008;5.432;2023-07-31T02:55:32;100787.0;;;43.03;19.66
59654;BME280;66556;52.008;5.432;2023-07-31T02:58:45;100786.0;;;42.31;20.39
59654;BME280;66556;52.008;5.432;2023-07-31T03:00:22;100786.0;;;42.97;19.84
59654;BME280;66556;52.008;5.432;2023-07-31T03:01:58;100783.0;;;42.5;19.93
59654;BME280;66556;52.008;5.432;2023-07-31T03:03:36;100784.0;;;42.09;20.34
59654;BME280;66556;52.008;5.432;2023-07-31T03:06:50;100780.0;;;42.96;19.43
59654;BME280;66556;52.008;5.432;2023-07-31T03:08:27;100789.0;;;41.84;20.38
59654;BME280;66556;52.008;5.432;2023-07-31T03:10:04;100786.0;;;40.94;21.61
59654;BME280;66556;52.008;5.432;2023-07-31T03:13:17;100785.0;;;41.5;21.07
59654;BME280;66556;52.008;5.432;2023-07-31T03:14:55;100790.0;;;41.17;21.1
59654;BME280;66556;52.008;5.432;2023-07-31T03:16:32;100793.0;;;41.65;20.77
59654;BME280;66556;52.008;5.432;2023-07-31T03:19:45;100788.0;;;42.02;20.37
59654;BME280;66556;52.008;5.432;2023-07-31T03:21:21;100781.0;;;42.04;20.31
59654;BME280;66556;52.008;5.432;2023-07-31T03:22:58;100786.0;;;40.87;21.13
59654;BME280;66556;52.008;5.432;2023-07-31T03:24:35;100780.0;;;41.86;20.3
59654;BME280;66556;52.008;5.432;2023-07-31T03:27:49;100776.0;;;42.57;19.63
59654;BME280;66556;52.008;5.432;2023-07-31T03:29:26;100774.0;;;41.95;20.2
59654;BME280;66556;52.008;5.432;2023-07-31T03:31:02;100776.0;;;41.85;20.21
59654;BME280;66556;52.008;5.432;2023-07-31T03:34:16;100773.0;;;41.27;20.83
59654;BME280;66556;52.008;5.432;2023-07-31T03:35:52;100770.0;;;41.7;20.2
59654;BME280;66556;52.008;5.432;2023-07-31T03:37:29;100771.0;;;40.93;20.83
59654;BME280;66556;52.008;5.432;2023-07-31T03:40:43;100768.0;;;41.15;20.89
59654;BME280;66556;52.008;5.432;2023-07-31T03:42:20;100773.0;;;41.03;20.81
59654;BME280;66556;52.008;5.432;2023-07-31T03:43:57;100771.0;;;41.0;20.86
59654;BME280;66556;52.008;5.432;2023-07-31T03:45:34;100769.0;;;41.43;20.64
59654;BME280;66556;52.008;5.432;2023-07-31T03:48:48;100771.0;;;40.71;21.11
59654;BME280;66556;52.008;5.432;2023-07-31T03:50:24;100773.0;;;42.09;19.84
59654;BME280;66556;52.008;5.432;2023-07-31T03:52:00;100769.0;;;41.82;19.91
59654;BME280;66556;52.008;5.432;2023-07-31T03:55:15;100767.0;;;39.94;21.68
59654;BME280;66556;52.008;5.432;2023-07-31T03:56:52;100764.0;;;41.91;19.79
59654;BME280;66556;52.008;5.432;2023-07-31T03:58:28;100767.0;;;41.21;20.59
59654;BME280;66556;52.008;5.432;2023-07-31T04:00:06;100764.0;;;41.08;20.56
59654;BME280;66556;52.008;5.432;2023-07-31T04:03:19;100765.0;;;40.79;21.12
59654;BME280;66556;52.008;5.432;2023-07-31T04:04:57;100765.0;;;41.74;19.98
59654;BME280;66556;52.008;5.432;2023-07-31T04:06:33;100766.0;;;42.15;19.53
59654;BME280;66556;52.008;5.432;2023-07-31T04:09:47;100760.0;;;41.27;20.25
59654;BME280;66556;52.008;5.432;2023-07-31T04:11:23;100755.0;;;42.28;19.46
59654;BME280;66556;52.008;5.432;2023-07-31T04:13:00;100755.0;;;41.41;20.04
59654;BME280;66556;52.008;5.432;2023-07-31T04:16:14;100747.0;;;42.45;19.36
59654;BME280;66556;52.008;5.432;2023-07-31T04:17:50;100747.0;;;41.8;19.57
59654;BME280;66556;52.008;5.432;2023-07-31T04:19:27;100743.0;;;42.62;19.0
59654;BME280;66556;52.008;5.432;2023-07-31T04:21:03;100745.0;;;41.36;20.36
59654;BME280;66556;52.008;5.432;2023-07-31T04:24:18;100733.0;;;41.89;19.7
59654;BME280;66556;52.008;5.432;2023-07-31T04:25:55;100732.0;;;41.29;20.3
59654;BME280;66556;52.008;5.432;2023-07-31T04:27:32;100730.0;;;41.55;20.03
59654;BME280;66556;52.008;5.432;2023-07-31T04:30:46;100731.0;;;41.97;19.73
59654;BME280;66556;52.008;5.432;2023-07-31T04:32:23;100731.0;;;41.13;20.2
59654;BME280;66556;52.008;5.432;2023-07-31T04:34:00;100734.0;;;41.07;20.27
59654;BME280;66556;52.008;5.432;2023-07-31T04:37:13;100732.0;;;41.8;19.86
59654;BME280;66556;52.008;5.432;2023-07-31T04:38:50;100737.0;;;41.43;20.18
59654;BME280;66556;52.008;5.432;2023-07-31T04:40:27;100733.0;;;40.79;20.71
59654;BME280;66556;52.008;5.432;2023-07-31T04:42:04;100731.0;;;41.77;19.66
59654;BME280;66556;52.008;5.432;2023-07-31T04:45:18;100734.0;;;41.41;20.09
59654;BME280;66556;52.008;5.432;2023-07-31T04:46:55;100732.0;;;42.06;19.39
59654;BME280;66556;52.008;5.432;2023-07-31T04:48:32;100730.0;;;41.72;19.79
59654;BME280;66556;52.008;5.432;2023-07-31T04:51:45;100732.0;;;42.07;19.38
59654;BME280;66556;52.008;5.432;2023-07-31T04:53:22;100727.0;;;40.92;20.78
59654;BME280;66556;52.008;5.432;2023-07-31T04:54:59;100726.0;;;41.16;20.51
59654;BME280;66556;52.008;5.432;2023-07-31T04:56:35;100716.0;;;40.97;20.54
59654;BME280;66556;52.008;5.432;2023-07-31T04:59:49;100719.0;;;40.72;21.12
59654;BME280;66556;52.008;5.432;2023-07-31T05:01:25;100713.0;;;40.85;20.8
59654;BME280;66556;52.008;5.432;2023-07-31T05:03:02;100718.0;;;41.89;19.8
59654;BME280;66556;52.008;5.432;2023-07-31T05:06:16;100711.0;;;41.31;20.09
59654;BME280;66556;52.008;5.432;2023-07-31T05:07:53;100709.0;;;40.89;20.71
59654;BME280;66556;52.008;5.432;2023-07-31T05:09:30;100710.0;;;40.87;20.87
59654;BME280;66556;52.008;5.432;2023-07-31T05:12:45;100703.0;;;39.72;22.01
59654;BME280;66556;52.008;5.432;2023-07-31T05:14:22;100714.0;;;40.46;21.16
59654;BME280;66556;52.008;5.432;2023-07-31T05:15:59;100705.0;;;40.82;21.07
59654;BME280;66556;52.008;5.432;2023-07-31T05:17:35;100706.0;;;39.94;22.15
59654;BME280;66556;52.008;5.432;2023-07-31T05:20:49;100705.0;;;41.11;20.98
59654;BME280;66556;52.008;5.432;2023-07-31T05:22:26;100708.0;;;41.12;20.71
59654;BME280;66556;52.008;5.432;2023-07-31T05:24:04;100706.0;;;40.76;21.35
59654;BME280;66556;52.008;5.432;2023-07-31T05:27:19;100705.0;;;41.08;21.19
59654;BME280;66556;52.008;5.432;2023-07-31T05:28:56;100710.0;;;40.85;21.24
59654;BME280;66556;52.008;5.432;2023-07-31T05:30:32;100705.0;;;40.85;21.68
59654;BME280;66556;52.008;5.432;2023-07-31T05:32:08;100705.0;;;40.37;21.83
59654;BME280;66556;52.008;5.432;2023-07-31T05:35:21;100700.0;;;42.03;20.16
59654;BME280;66556;52.008;5.432;2023-07-31T05:36:58;100706.0;;;40.44;21.75
59654;BME280;66556;52.008;5.432;2023-07-31T05:38:35;100701.0;;;41.28;21.0
59654;BME280;66556;52.008;5.432;2023-07-31T05:41:49;100691.0;;;42.2;20.02
59654;BME280;66556;52.008;5.432;2023-07-31T05:43:26;100691.0;;;41.31;20.93
59654;BME280;66556;52.008;5.432;2023-07-31T05:45:05;100688.0;;;41.21;21.18
59654;BME280;66556;52.008;5.432;2023-07-31T05:48:19;100691.0;;;41.51;20.62
59654;BME280;66556;52.008;5.432;2023-07-31T05:49:55;100687.0;;;39.89;22.46
59654;BME280;66556;52.008;5.432;2023-07-31T05:51:32;100682.0;;;40.6;21.62
59654;BME280;66556;52.008;5.432;2023-07-31T05:53:08;100677.0;;;40.93;21.32
59654;BME280;66556;52.008;5.432;2023-07-31T05:56:23;100674.0;;;40.74;21.77
59654;BME280;66556;52.008;5.432;2023-07-31T05:58:00;100668.0;;;39.64;22.94
59654;BME280;66556;52.008;5.432;2023-07-31T05:59:37;100661.0;;;40.89;21.58
59654;BME280;66556;52.008;5.432;2023-07-31T06:02:49;100661.0;;;40.36;21.99
59654;BME280;66556;52.008;5.432;2023-07-31T06:04:27;100659.0;;;40.64;21.78
59654;BME280;66556;52.008;5.432;2023-07-31T06:06:03;100659.0;;;40.1;22.38
59654;BME280;66556;52.008;5.432;2023-07-31T06:07:40;100653.0;;;41.22;21.12
59654;BME280;66556;52.008;5.432;2023-07-31T06:10:53;100659.0;;;40.17;22.43
59654;BME280;66556;52.008;5.432;2023-07-31T06:12:29;100655.0;;;39.75;22.88
59654;BME280;66556;52.008;5.432;2023-07-31T06:14:06;100655.0;;;39.78;22.82
59654;BME280;66556;52.008;5.432;2023-07-31T06:17:20;100663.0;;;39.5;23.26
59654;BME280;66556;52.008;5.432;2023-07-31T06:18:57;100651.0;;;39.83;22.63
59654;BME280;66556;52.008;5.432;2023-07-31T06:20:34;100656.0;;;40.6;21.83
59654;BME280;66556;52.008;5.432;2023-07-31T06:23:48;100652.0;;;40.78;21.72
59654;BME280;66556;52.008;5.432;2023-07-31T06:25:25;100649.0;;;40.22;22.25
59654;BME280;66556;52.008;5.432;2023-07-31T06:27:02;100655.0;;;40.18;22.58
59654;BME280;66556;52.008;5.432;2023-07-31T06:28:38;100647.0;;;40.03;22.7
59654;BME280;66556;52.008;5.432;2023-07-31T06:31:52;100647.0;;;40.92;21.68
59654;BME280;66556;52.008;5.432;2023-07-31T06:33:29;100641.0;;;41.66;21.16
59654;BME280;66556;52.008;5.432;2023-07-31T06:35:07;100641.0;;;40.9;21.75
59654;BME280;66556;52.008;5.432;2023-07-31T06:38:22;100641.0;;;40.6;22.37
59654;BME280;66556;52.008;5.432;2023-07-31T06:40:01;100641.0;;;41.01;21.54
59654;BME280;66556;52.008;5.432;2023-07-31T06:41:38;100630.0;;;42.52;20.22
59654;BME280;66556;52.008;5.432;2023-07-31T06:43:15;100636.0;;;41.57;20.97
59654;BME280;66556;52.008;5.432;2023-07-31T06:46:30;100625.0;;;41.86;20.9
59654;BME280;66556;52.008;5.432;2023-07-31T06:48:06;100621.0;;;41.55;21.27
59654;BME280;66556;52.008;5.432;2023-07-31T06:49:43;100622.0;;;40.1;22.71
59654;BME280;66556;52.008;5.432;2023-07-31T06:52:56;100618.0;;;40.25;22.51
59654;BME280;66556;52.008;5.432;2023-07-31T06:54:32;100608.0;;;42.39;20.61
59654;BME280;66556;52.008;5.432;2023-07-31T06:56:09;100620.0;;;41.1;21.79
59654;BME280;66556;52.008;5.432;2023-07-31T06:59:23;100609.0;;;42.11;20.71
59654;BME280;66556;52.008;5.432;2023-07-31T07:01:00;100611.0;;;41.17;21.88
59654;BME280;66556;52.008;5.432;2023-07-31T07:02:37;100602.0;;;42.0;21.13
59654;BME280;66556;52.008;5.432;2023-07-31T07:04:14;100609.0;;;41.09;21.95
59654;BME280;66556;52.008;5.432;2023-07-31T07:07:29;100605.0;;;41.38;21.94
59654;BME280;66556;52.008;5.432;2023-07-31T07:09:05;100603.0;;;41.12;22.08
59654;BME280;66556;52.008;5.432;2023-07-31T07:10:42;100596.0;;;41.97;21.33
59654;BME280;66556;52.008;5.432;2023-07-31T07:13:56;100595.0;;;42.51;20.87
59654;BME280;66556;52.008;5.432;2023-07-31T07:15:33;100595.0;;;41.62;21.48
59654;BME280;66556;52.008;5.432;2023-07-31T07:17:09;100596.0;;;41.0;22.22
59654;BME280;66556;52.008;5.432;2023-07-31T07:18:47;100592.0;;;41.38;21.77
59654;BME280;66556;52.008;5.432;2023-07-31T07:22:01;100589.0;;;42.55;20.6
59654;BME280;66556;52.008;5.432;2023-07-31T07:23:38;100599.0;;;41.62;21.72
59654;BME280;66556;52.008;5.432;2023-07-31T07:25:15;100603.0;;;41.26;21.98
59654;BME280;66556;52.008;5.432;2023-07-31T07:28:29;100601.0;;;41.01;22.49
59654;BME280;66556;52.008;5.432;2023-07-31T07:30:06;100601.0;;;40.93;22.37
59654;BME280;66556;52.008;5.432;2023-07-31T07:31:43;100595.0;;;41.0;22.22
59654;BME280;66556;52.008;5.432;2023-07-31T07:34:58;100596.0;;;41.01;22.17
59654;BME280;66556;52.008;5.432;2023-07-31T07:36:34;100601.0;;;41.83;21.4
59654;BME280;66556;52.008;5.432;2023-07-31T07:38:13;100591.0;;;42.58;20.64
59654;BME280;66556;52.008;5.432;2023-07-31T07:39:50;100591.0;;;42.6;20.76
59654;BME280;66556;52.008;5.432;2023-07-31T07:43:03;100593.0;;;42.17;21.04
59654;BME280;66556;52.008;5.432;2023-07-31T07:44:39;100580.0;;;42.19;21.05
59654;BME280;66556;52.008;5.432;2023-07-31T07:46:17;100598.0;;;41.26;22.23
59654;BME280;66556;52.008;5.432;2023-07-31T07:49:31;100590.0;;;41.67;21.55
59654;BME280;66556;52.008;5.432;2023-07-31T07:51:08;100585.0;;;42.56;20.92
59654;BME280;66556;52.008;5.432;2023-07-31T07:52:45;100590.0;;;41.64;21.91
59654;BME280;66556;52.008;5.432;2023-07-31T07:54:22;100590.0;;;41.91;21.46
59654;BME280;66556;52.008;5.432;2023-07-31T07:57:36;100588.0;;;41.83;21.49
59654;BME280;66556;52.008;5.432;2023-07-31T07:59:13;100585.0;;;42.1;21.2
59654;BME280;66556;52.008;5.432;2023-07-31T08:00:50;100585.0;;;42.55;20.84
59654;BME280;66556;52.008;5.432;2023-07-31T08:04:04;100581.0;;;41.78;21.82
59654;BME280;66556;52.008;5.432;2023-07-31T08:05:40;100587.0;;;42.02;21.36
59654;BME280;66556;52.008;5.432;2023-07-31T08:07:17;100580.0;;;42.44;21.05
59654;BME280;66556;52.008;5.432;2023-07-31T08:10:31;100586.0;;;41.92;21.47
59654;BME280;66556;52.008;5.432;2023-07-31T08:12:08;100581.0;;;42.26;21.12
59654;BME280;66556;52.008;5.432;2023-07-31T08:13:46;100580.0;;;43.18;20.28
59654;BME280;66556;52.008;5.432;2023-07-31T08:15:22;100575.0;;;42.69;20.6
59654;BME280;66556;52.008;5.432;2023-07-31T08:18:38;100577.0;;;42.87;20.64
59654;BME280;66556;52.008;5.432;2023-07-31T08:20:15;100574.0;;;43.09;20.65
59654;BME280;66556;52.008;5.432;2023-07-31T08:21:52;100574.0;;;41.74;21.94
59654;BME280;66556;52.008;5.432;2023-07-31T08:25:07;100581.0;;;41.55;22.21
59654;BME280;66556;52.008;5.432;2023-07-31T08:26:43;100568.0;;;41.71;22.03
59654;BME280;66556;52.008;5.432;2023-07-31T08:28:21;100569.0;;;42.0;21.92
59654;BME280;66556;52.008;5.432;2023-07-31T08:29:58;100566.0;;;41.98;21.79
59654;BME280;66556;52.008;5.432;2023-07-31T08:33:12;100562.0;;;42.05;21.98
59654;BME280;66556;52.008;5.432;2023-07-31T08:34:48;100563.0;;;42.82;20.91
59654;BME280;66556;52.008;5.432;2023-07-31T08:36:26;100566.0;;;41.76;22.26
59654;BME280;66556;52.008;5.432;2023-07-31T08:39:40;100556.0;;;43.1;20.81
59654;BME280;66556;52.008;5.432;2023-07-31T08:41:17;100563.0;;;42.28;21.42
59654;BME280;66556;52.008;5.432;2023-07-31T08:42:55;100559.0;;;42.3;21.43
59654;BME280;66556;52.008;5.432;2023-07-31T08:44:33;100561.0;;;43.35;20.23
59654;BME280;66556;52.008;5.432;2023-07-31T08:47:49;100573.0;;;41.52;22.15
59654;BME280;66556;52.008;5.432;2023-07-31T08:49:29;100566.0;;;42.28;21.42
59654;BME280;66556;52.008;5.432;2023-07-31T08:51:06;100562.0;;;43.03;21.01
59654;BME280;66556;52.008;5.432;2023-07-31T08:54:24;100564.0;;;42.28;21.4
59654;BME280;66556;52.008;5.432;2023-07-31T08:56:02;100561.0;;;42.66;21.11
59654;BME280;66556;52.008;5.432;2023-07-31T08:57:41;100561.0;;;43.21;20.73
59654;BME280;66556;52.008;5.432;2023-07-31T08:59:19;100557.0;;;43.55;20.18
59654;BME280;66556;52.008;5.432;2023-07-31T09:02:46;100563.0;;;41.67;22.08
59654;BME280;66556;52.008;5.432;2023-07-31T09:04:28;100558.0;;;43.0;20.68
59654;BME280;66556;52.008;5.432;2023-07-31T09:06:06;100564.0;;;43.17;20.95
59654;BME280;66556;52.008;5.432;2023-07-31T09:07:45;100564.0;;;41.55;22.38
59654;BME280;66556;52.008;5.432;2023-07-31T09:11:01;100557.0;;;41.98;21.84
59654;BME280;66556;52.008;5.432;2023-07-31T09:12:38;100559.0;;;42.66;21.14
59654;BME280;66556;52.008;5.432;2023-07-31T09:14:16;100565.0;;;42.76;21.2
59654;BME280;66556;52.008;5.432;2023-07-31T09:17:34;100568.0;;;41.99;21.79
59654;BME280;66556;52.008;5.432;2023-07-31T09:19:10;100560.0;;;42.61;21.16
59654;BME280;66556;52.008;5.432;2023-07-31T09:21:00;100555.0;;;42.86;21.31
59654;BME280;66556;52.008;5.432;2023-07-31T09:22:37;100559.0;;;43.1;21.0
59654;BME280;66556;52.008;5.432;2023-07-31T09:26:02;100555.0;;;42.2;21.85
59654;BME280;66556;52.008;5.432;2023-07-31T09:27:46;100551.0;;;42.56;21.11
59654;BME280;66556;52.008;5.432;2023-07-31T09:29:24;100553.0;;;41.88;21.91
59654;BME280;66556;52.008;5.432;2023-07-31T09:31:01;100548.0;;;43.59;20.48
59654;BME280;66556;52.008;5.432;2023-07-31T09:34:15;100544.0;;;42.17;21.66
59654;BME280;66556;52.008;5.432;2023-07-31T09:35:52;100541.0;;;43.41;20.53
59654;BME280;66556;52.008;5.432;2023-07-31T09:37:29;100539.0;;;42.3;21.53
59654;BME280;66556;52.008;5.432;2023-07-31T09:39:09;100537.0;;;44.23;19.82
59654;BME280;66556;52.008;5.432;2023-07-31T09:42:25;100542.0;;;44.72;19.43
59654;BME280;66556;52.008;5.432;2023-07-31T09:44:03;100538.0;;;42.82;21.09
59654;BME280;66556;52.008;5.432;2023-07-31T09:45:41;100540.0;;;43.76;20.47
59654;BME280;66556;52.008;5.432;2023-07-31T09:47:23;100541.0;;;43.17;20.83
59654;BME280;66556;52.008;5.432;2023-07-31T09:50:48;100538.0;;;43.73;20.63
59654;BME280;66556;52.008;5.432;2023-07-31T09:52:26;100541.0;;;44.13;19.98
59654;BME280;66556;52.008;5.432;2023-07-31T09:54:03;100536.0;;;43.93;20.39
59654;BME280;66556;52.008;5.432;2023-07-31T09:57:21;100538.0;;;42.82;20.99
59654;BME280;66556;52.008;5.432;2023-07-31T09:58:58;100532.0;;;44.2;19.66
59654;BME280;66556;52.008;5.432;2023-07-31T10:00:37;100532.0;;;43.94;20.09
59654;BME280;66556;52.008;5.432;2023-07-31T10:02:20;100535.0;;;43.9;20.14
59654;BME280;66556;52.008;5.432;2023-07-31T10:05:36;100534.0;;;43.94;20.31
59654;BME280;66556;52.008;5.432;2023-07-31T10:07:17;100531.0;;;43.7;20.45
59654;BME280;66556;52.008;5.432;2023-07-31T10:08:55;100525.0;;;43.29;20.98
59654;BME280;66556;52.008;5.432;2023-07-31T10:10:35;100527.0;;;43.3;20.92
59654;BME280;66556;52.008;5.432;2023-07-31T10:13:55;100525.0;;;43.59;20.71
59654;BME280;66556;52.008;5.432;2023-07-31T10:15:32;100530.0;;;44.65;19.77
59654;BME280;66556;52.008;5.432;2023-07-31T10:17:11;100524.0;;;42.92;21.06
59654;BME280;66556;52.008;5.432;2023-07-31T10:18:49;100524.0;;;44.35;19.91
59654;BME280;66556;52.008;5.432;2023-07-31T10:22:06;100524.0;;;44.27;20.11
59654;BME280;66556;52.008;5.432;2023-07-31T10:23:44;100530.0;;;44.18;19.8
59654;BME280;66556;52.008;5.432;2023-07-31T10:25:22;100530.0;;;44.55;19.78
59654;BME280;66556;52.008;5.432;2023-07-31T10:28:38;100528.0;;;43.63;20.28
59654;BME280;66556;52.008;5.432;2023-07-31T10:30:17;100533.0;;;43.76;20.52
59654;BME280;66556;52.008;5.432;2023-07-31T10:31:57;100534.0;;;43.86;20.2
59654;BME280;66556;52.008;5.432;2023-07-31T10:33:34;100525.0;;;44.14;20.23
59654;BME280;66556;52.008;5.432;2023-07-31T10:36:48;100527.0;;;44.68;19.86
59654;BME280;66556;52.008;5.432;2023-07-31T10:38:25;100530.0;;;43.87;20.36
59654;BME280;66556;52.008;5.432;2023-07-31T10:40:03;100530.0;;;43.57;20.57
59654;BME280;66556;52.008;5.432;2023-07-31T10:43:25;100530.0;;;44.38;19.79
59654;BME280;66556;52.008;5.432;2023-07-31T10:45:04;100522.0;;;43.94;20.56
59654;BME280;66556;52.008;5.432;2023-07-31T10:46:45;100530.0;;;44.75;19.81
59654;BME280;66556;52.008;5.432;2023-07-31T10:48:21;100538.0;;;44.05;20.18
59654;BME280;66556;52.008;5.432;2023-07-31T10:52:10;100530.0;;;43.1;21.3
59654;BME280;66556;52.008;5.432;2023-07-31T10:53:48;100533.0;;;42.59;21.99
59654;BME280;66556;52.008;5.432;2023-07-31T10:55:28;100530.0;;;42.95;21.43
59654;BME280;66556;52.008;5.432;2023-07-31T10:57:18;100535.0;;;43.1;21.39
59654;BME280;66556;52.008;5.432;2023-07-31T10:59:01;100530.0;;;43.07;21.57
59654;BME280;66556;52.008;5.432;2023-07-31T11:00:39;100530.0;;;41.49;23.15
59654;BME280;66556;52.008;5.432;2023-07-31T11:04:10;100534.0;;;41.77;23.13
59654;BME280;66556;52.008;5.432;2023-07-31T11:05:50;100525.0;;;42.14;22.59
59654;BME280;66556;52.008;5.432;2023-07-31T11:07:46;100522.0;;;43.06;21.67